createdAt,value
2023-04-12T00:04:56.267Z,100028.13
2023-04-12T00:09:58.356Z,100012.06
2023-04-12T00:15:01.789Z,99981.88
2023-04-12T00:20:12.349Z,99970.41
2023-04-12T00:25:14.610Z,99955.59
2023-04-12T00:30:17.858Z,99954.44
2023-04-12T00:35:20.051Z,99942.84
2023-04-12T00:40:22.635Z,99914.75
2023-04-12T00:45:24.779Z,99899.56
2023-04-12T00:50:26.927Z,99898.63
2023-04-12T00:55:28.884Z,99885.22
2023-04-12T01:00:31.261Z,99878.53
2023-04-12T01:05:41.151Z,99858.84
2023-04-12T01:10:48.992Z,99838.44
2023-04-12T01:15:58.958Z,99833.13
2023-04-12T01:21:09.061Z,99830.69
2023-04-12T01:31:19.548Z,99784.44
2023-04-12T01:36:23.305Z,99771.16
2023-04-12T01:41:25.346Z,99754.44
2023-04-12T01:46:27.217Z,99743.91
2023-04-12T01:51:50.098Z,99732.53
2023-04-12T01:56:58.297Z,99727.03
2023-04-12T02:02:00.430Z,99705.63
2023-04-12T02:07:03.310Z,99690.44
2023-04-12T02:12:06.926Z,99670.34
2023-04-12T02:17:09.028Z,99652.72
2023-04-12T02:22:11.112Z,99634.94
2023-04-12T02:27:13.241Z,99632.41
2023-04-12T02:32:16.161Z,99614.53
2023-04-12T02:37:22.266Z,99590.63
2023-04-12T02:42:24.485Z,99586.47
2023-04-12T02:47:29.484Z,99565.84
2023-04-12T02:52:33.378Z,99557.78
2023-04-12T02:57:35.807Z,99540.13
2023-04-12T03:02:38.349Z,99524.31
2023-04-12T03:07:40.576Z,99499.53
2023-04-12T03:12:42.676Z,99490.72
2023-04-12T03:17:45.281Z,99484.56
2023-04-12T03:22:47.424Z,99474.66
2023-04-12T03:27:49.456Z,99468.72
2023-04-12T03:32:51.512Z,99449.16
2023-04-12T03:37:53.412Z,99432.16
2023-04-12T03:42:55.407Z,99426.00
2023-04-12T03:48:00.740Z,99411.09
2023-04-12T03:53:02.798Z,99406.81
2023-04-12T03:58:05.324Z,99396.19
2023-04-12T04:03:07.393Z,99378.44
2023-04-12T04:08:10.393Z,99365.81
2023-04-12T04:13:12.293Z,99359.41
2023-04-12T04:18:14.253Z,99347.31
2023-04-12T04:23:17.815Z,99347.22
2023-04-12T04:28:20.329Z,99338.41
2023-04-12T04:33:22.301Z,99329.69
2023-04-12T04:38:27.373Z,99318.19
2023-04-12T04:43:34.360Z,99325.22
2023-04-12T04:48:36.854Z,99313.50
2023-04-12T04:53:39.001Z,99303.13
2023-04-12T04:58:41.251Z,99295.16
2023-04-12T05:03:45.516Z,99298.66
2023-04-12T05:08:47.564Z,99291.72
2023-04-12T05:13:49.584Z,99291.41
2023-04-12T05:18:51.605Z,99289.59
2023-04-12T05:23:53.917Z,99293.34
2023-04-12T05:28:56.388Z,99273.97
2023-04-12T05:33:58.644Z,99273.78
2023-04-12T05:39:00.850Z,99267.81
2023-04-12T05:44:04.080Z,99262.41
2023-04-12T05:49:07.062Z,99260.50
2023-04-12T05:54:09.450Z,99258.03
2023-04-12T05:59:12.914Z,99259.72
2023-04-12T06:04:15.552Z,99254.31
2023-04-12T06:09:17.549Z,99241.25
2023-04-12T06:14:19.820Z,99228.63
2023-04-12T06:19:22.378Z,99231.44
2023-04-12T06:24:24.333Z,99233.38
2023-04-12T06:29:26.513Z,99218.00
2023-04-12T06:34:28.409Z,99216.50
2023-04-12T06:39:32.176Z,99214.56
2023-04-12T06:44:34.261Z,99203.31
2023-04-12T06:49:36.340Z,99210.19
2023-04-12T06:54:39.551Z,99192.69
2023-04-12T06:59:41.666Z,99177.38
2023-04-12T07:04:43.854Z,99180.13
2023-04-12T07:09:48.074Z,99177.00
2023-04-12T07:14:50.128Z,99190.88
2023-04-12T07:19:52.974Z,99189.19
2023-04-12T07:24:55.766Z,99178.78
2023-04-12T07:30:00.611Z,99187.03
2023-04-12T07:35:02.840Z,99182.78
2023-04-12T07:40:05.246Z,99170.16
2023-04-12T07:45:07.669Z,99176.41
2023-04-12T07:50:12.063Z,99172.81
2023-04-12T07:55:15.058Z,99174.09
2023-04-12T08:00:18.732Z,99182.69
2023-04-12T08:05:20.767Z,99176.63
2023-04-12T08:10:23.061Z,99176.63
2023-04-12T08:15:25.519Z,99180.38
2023-04-12T08:20:28.224Z,99190.44
2023-04-12T08:25:30.584Z,99201.19
2023-04-12T08:30:32.846Z,99213.63
2023-04-12T08:35:34.910Z,99227.75
2023-04-12T08:40:37.572Z,99227.84
2023-04-12T08:45:40.014Z,99224.41
2023-04-12T08:50:44.401Z,99225.16
2023-04-12T08:55:46.578Z,99234.19
2023-04-12T09:00:50.139Z,99224.75
2023-04-12T09:05:52.267Z,99223.16
2023-04-12T09:10:54.494Z,99225.38
2023-04-12T09:15:56.703Z,99219.78
2023-04-12T09:21:09.671Z,99214.56
2023-04-12T09:26:29.061Z,99209.34
2023-04-12T09:31:31.966Z,99215.19
2023-04-12T09:36:43.556Z,99209.78
2023-04-12T09:41:45.736Z,99204.34
2023-04-12T09:46:52.320Z,99206.16
2023-04-12T09:51:54.382Z,99207.69
2023-04-12T09:56:57.785Z,99208.63
2023-04-12T10:02:00.112Z,99216.59
2023-04-12T10:07:04.564Z,99215.50
2023-04-12T10:12:07.564Z,99203.94
2023-04-12T10:17:12.967Z,99184.91
2023-04-12T10:22:17.575Z,99197.47
2023-04-12T10:27:28.756Z,99198.22
2023-04-12T10:32:34.076Z,99207.75
2023-04-12T10:38:00.568Z,99200.72
2023-04-12T10:43:27.161Z,99210.28
2023-04-12T10:48:33.031Z,99220.56
2023-04-12T10:53:34.983Z,99215.47
2023-04-12T10:58:49.351Z,99206.16
2023-04-12T11:04:10.277Z,99202.38
2023-04-12T11:09:26.745Z,99213.50
2023-04-12T11:14:35.458Z,99216.78
2023-04-12T11:19:44.049Z,99216.56
2023-04-12T11:24:49.076Z,99211.22
2023-04-12T11:29:54.981Z,99208.47
2023-04-12T11:34:58.803Z,99213.44
2023-04-12T11:40:00.915Z,99216.19
2023-04-12T11:45:13.357Z,99216.19
2023-04-12T11:50:31.420Z,99217.38
2023-04-12T11:55:34.223Z,99218.13
2023-04-12T12:00:36.777Z,99212.81
2023-04-12T12:05:41.365Z,99204.09
2023-04-12T12:10:59.992Z,99205.72
2023-04-12T12:16:11.844Z,99193.16
2023-04-12T12:21:14.998Z,99197.00
2023-04-12T12:26:26.162Z,99203.25
2023-04-12T12:31:29.061Z,99209.41
2023-04-12T12:36:36.942Z,99238.44
2023-04-12T12:41:40.394Z,99258.34
2023-04-12T12:51:47.848Z,99241.19
2023-04-12T12:56:49.899Z,99239.53
2023-04-12T13:01:52.176Z,99231.66
2023-04-12T13:06:54.437Z,99220.03
2023-04-12T13:11:57.953Z,99229.72
2023-04-12T13:17:00.175Z,99227.19
2023-04-12T13:22:02.552Z,99224.75
2023-04-12T13:27:05.476Z,99224.88
2023-04-12T13:32:08.008Z,99224.53
2023-04-12T13:37:11.465Z,99228.38
2023-04-12T13:42:14.880Z,99227.41
2023-04-12T13:47:38.065Z,99222.22
2023-04-12T13:52:40.323Z,99227.41
2023-04-12T13:57:42.794Z,99229.09
2023-04-12T14:02:45.258Z,99226.34
2023-04-12T14:07:50.211Z,99243.22
2023-04-12T14:12:52.661Z,99273.34
2023-04-12T14:17:54.952Z,99260.03
2023-04-12T14:22:57.456Z,99266.09
2023-04-12T14:27:59.483Z,99256.53
2023-04-12T14:33:01.966Z,99252.06
2023-04-12T14:38:05.374Z,99233.94
2023-04-12T14:43:08.300Z,99248.22
2023-04-12T14:48:10.866Z,99249.53
2023-04-12T14:53:14.217Z,99261.00
2023-04-12T14:58:16.155Z,99270.16
2023-04-12T15:03:18.381Z,99279.09
2023-04-12T15:08:20.556Z,99267.50
2023-04-12T15:13:26.483Z,99272.91
2023-04-12T15:18:31.127Z,99291.19
2023-04-12T15:23:33.211Z,99278.41
2023-04-12T15:28:36.880Z,99281.91
2023-04-12T15:33:39.093Z,99270.78
2023-04-12T15:38:42.884Z,99279.59
2023-04-12T15:43:49.750Z,99272.59
2023-04-12T15:48:52.506Z,99276.00
2023-04-12T15:53:55.432Z,99270.16
2023-04-12T15:58:58.292Z,99270.22
2023-04-12T16:04:00.676Z,99260.44
2023-04-12T16:09:02.885Z,99255.56
2023-04-12T16:14:05.029Z,99247.34
2023-04-12T16:19:09.314Z,99249.78
2023-04-12T16:24:11.895Z,99250.00
2023-04-12T16:29:13.962Z,99267.56
2023-04-12T16:34:16.124Z,99273.09
2023-04-12T16:39:19.251Z,99259.19
2023-04-12T16:44:21.380Z,99260.03
2023-04-12T16:49:23.517Z,99257.59
2023-04-12T16:54:26.041Z,99260.16
2023-04-12T16:59:28.261Z,99256.75
2023-04-12T17:04:30.791Z,99248.06
2023-04-12T17:09:32.779Z,99259.31
2023-04-12T17:14:34.871Z,99237.31
2023-04-12T17:19:37.155Z,99231.88
2023-04-12T17:24:39.350Z,99231.44
2023-04-12T17:29:41.416Z,99245.50
2023-04-12T17:34:43.669Z,99262.59
2023-04-12T17:39:45.909Z,99275.88
2023-04-12T17:44:48.493Z,99281.00
2023-04-12T17:49:50.874Z,99268.47
2023-04-12T17:54:53.337Z,99259.84
2023-04-12T17:59:55.560Z,99266.75
2023-04-12T18:04:57.608Z,99254.41
2023-04-12T18:10:00.108Z,99253.69
2023-04-12T18:15:04.692Z,99263.16
2023-04-12T18:20:11.404Z,99263.25
2023-04-12T18:25:13.685Z,99256.69
2023-04-12T18:30:17.680Z,99240.41
2023-04-12T18:35:20.101Z,99240.63
2023-04-12T18:40:23.689Z,99238.69
2023-04-12T18:45:26.604Z,99249.56
2023-04-12T18:50:28.875Z,99282.91
2023-04-12T18:55:30.973Z,99348.38
2023-04-12T19:00:34.131Z,99366.47
2023-04-12T19:05:36.343Z,99355.00
2023-04-12T19:10:38.236Z,99319.72
2023-04-12T19:15:40.223Z,99309.09
2023-04-12T19:20:42.334Z,99298.47
2023-04-12T19:25:44.345Z,99297.50
2023-04-12T19:30:46.492Z,99294.81
2023-04-12T19:35:48.630Z,99289.03
2023-04-12T19:40:51.593Z,99287.94
2023-04-12T19:45:53.736Z,99315.00
2023-04-12T19:50:55.703Z,99334.03
2023-04-12T19:55:58.781Z,99298.56
2023-04-12T20:01:05.667Z,99285.50
2023-04-12T20:06:07.692Z,99270.28
2023-04-12T20:11:09.956Z,99261.47
2023-04-12T20:16:12.309Z,99259.66
2023-04-12T20:21:14.570Z,99269.56
2023-04-12T20:26:16.800Z,99280.19
2023-04-12T20:31:19.633Z,99297.31
2023-04-12T20:36:22.921Z,99289.81
2023-04-12T20:41:24.706Z,99250.97
2023-04-12T20:46:26.977Z,99251.16
2023-04-12T20:51:29.653Z,99253.56
2023-04-12T20:56:31.990Z,99251.53
2023-04-12T21:01:34.055Z,99232.94
2023-04-12T21:06:37.838Z,99231.88
2023-04-12T21:11:41.663Z,99209.44
2023-04-12T21:16:44.087Z,99212.44
2023-04-12T21:21:46.845Z,99214.97
2023-04-12T21:26:56.658Z,99206.03
2023-04-12T21:31:58.703Z,99202.66
2023-04-12T21:37:04.486Z,99186.59
2023-04-12T21:42:06.963Z,99171.63
2023-04-12T21:47:09.253Z,99173.09
2023-04-12T21:52:11.294Z,99156.53
2023-04-12T21:57:15.450Z,99149.19
2023-04-12T22:02:17.423Z,99142.78
2023-04-12T22:07:19.639Z,99132.28
2023-04-12T22:12:23.213Z,99128.75
2023-04-12T22:17:25.427Z,99106.56
2023-04-12T22:22:30.328Z,99104.00
2023-04-12T22:27:32.264Z,99101.59
2023-04-12T22:32:35.389Z,99098.72
2023-04-12T22:37:43.984Z,99066.00
2023-04-12T22:42:48.423Z,99059.22
2023-04-12T22:47:50.387Z,99052.72
2023-04-12T22:52:54.727Z,99044.97
2023-04-12T22:57:56.559Z,99048.34
2023-04-12T23:02:58.643Z,99052.81
2023-04-12T23:08:00.988Z,99045.81
2023-04-12T23:13:03.588Z,99038.69
2023-04-12T23:18:05.625Z,99036.16
2023-04-12T23:23:07.828Z,99029.16
2023-04-12T23:28:14.809Z,99026.63
2023-04-12T23:33:18.980Z,99026.72
2023-04-12T23:38:24.803Z,99041.47
2023-04-12T23:43:26.951Z,99041.56
2023-04-12T23:48:29.494Z,99038.09
2023-04-12T23:53:31.964Z,99044.47
2023-04-12T23:58:36.677Z,99048.34
